Time;durP1;ratioP1;P1;durP2;ratioP2;P2;SDS_P1;SDS_P2;PMS_P1;PMS_P2;Temp;Humidity;BMP_temperature;BMP_pressure;BME280_temperature;BME280_humidity;BME280_pressure;Samples;Min_cycle;Max_cycle;Signal;HPM_P1;HPM_P2
2022/03/06 00:00:31;;;;;;;47.25;8.35;;;;;;;;;;5007412;28;20033;-37
2022/03/06 00:02:57;;;;;;;45.28;7.15;;;;;;;;;;5011474;28;20109;-37
2022/03/06 00:05:24;;;;;;;65.53;8.88;;;;;;;;;;5010743;28;20033;-38
2022/03/06 00:07:53;;;;;;;51.90;9.52;;;;;;;;;;5011091;28;20484;-38
2022/03/06 00:10:20;;;;;;;51.40;8.68;;;;;;;;;;5011216;28;20108;-37
2022/03/06 00:12:47;;;;;;;52.10;9.50;;;;;;;;;;5010887;28;20040;-37
2022/03/06 00:15:14;;;;;;;40.90;8.68;;;;;;;;;;5011424;28;20480;-37
2022/03/06 00:17:41;;;;;;;38.17;9.23;;;;;;;;;;5011131;28;20034;-37
2022/03/06 00:20:08;;;;;;;43.65;8.27;;;;;;;;;;5010799;28;20392;-37
2022/03/06 00:22:38;;;;;;;42.38;9.43;;;;;;;;;;5011826;28;20488;-38
2022/03/06 00:25:06;;;;;;;51.58;9.30;;;;;;;;;;4994797;28;20030;-38
2022/03/06 00:27:33;;;;;;;43.05;8.02;;;;;;;;;;4991353;28;20388;-39
2022/03/06 00:30:00;;;;;;;49.88;7.80;;;;;;;;;;4991509;28;20713;-39
2022/03/06 00:32:27;;;;;;;46.20;8.85;;;;;;;;;;4991936;28;20034;-39
2022/03/06 00:34:54;;;;;;;44.88;7.90;;;;;;;;;;4973161;28;20436;-39
2022/03/06 00:37:21;;;;;;;45.25;8.35;;;;;;;;;;4991707;28;20045;-39
2022/03/06 00:39:48;;;;;;;47.85;8.93;;;;;;;;;;4991400;28;20575;-39
2022/03/06 00:42:15;;;;;;;46.50;8.70;;;;;;;;;;4991498;28;20400;-39
2022/03/06 00:44:42;;;;;;;46.28;8.23;;;;;;;;;;4991797;28;20022;-39
2022/03/06 00:47:09;;;;;;;53.45;9.20;;;;;;;;;;4991457;28;20035;-39
2022/03/06 00:49:36;;;;;;;47.40;8.40;;;;;;;;;;4990841;28;20031;-39
2022/03/06 00:52:04;;;;;;;46.70;8.80;;;;;;;;;;4991036;28;20042;-39
2022/03/06 00:54:31;;;;;;;55.92;9.02;;;;;;;;;;4991728;28;20030;-39
2022/03/06 00:56:58;;;;;;;40.95;9.27;;;;;;;;;;4990965;28;20018;-39
2022/03/06 00:59:25;;;;;;;54.78;9.93;;;;;;;;;;4991166;28;20477;-39
2022/03/06 01:01:52;;;;;;;51.83;9.80;;;;;;;;;;4991225;28;20118;-39
2022/03/06 01:04:19;;;;;;;50.97;11.00;;;;;;;;;;4990702;28;20102;-37
2022/03/06 01:06:47;;;;;;;47.85;10.65;;;;;;;;;;4990789;28;20049;-37
2022/03/06 01:09:13;;;;;;;47.13;11.13;;;;;;;;;;4990760;28;20109;-44
2022/03/06 01:11:41;;;;;;;57.45;12.40;;;;;;;;;;4996793;28;20030;-44
2022/03/06 01:14:08;;;;;;;50.35;10.27;;;;;;;;;;4992400;28;20030;-42
2022/03/06 01:16:35;;;;;;;50.20;10.30;;;;;;;;;;4993520;28;20487;-42
2022/03/06 01:19:02;;;;;;;49.58;10.60;;;;;;;;;;4994549;28;20030;-42
2022/03/06 01:21:29;;;;;;;52.83;9.85;;;;;;;;;;4994045;28;20481;-42
2022/03/06 01:23:56;;;;;;;54.53;9.75;;;;;;;;;;4995021;28;20129;-42
2022/03/06 01:26:23;;;;;;;53.13;9.10;;;;;;;;;;4993958;28;20113;-42
2022/03/06 01:28:50;;;;;;;55.13;9.63;;;;;;;;;;4994402;28;20033;-42
2022/03/06 01:31:17;;;;;;;55.72;10.80;;;;;;;;;;4994787;28;20026;-42
2022/03/06 01:33:44;;;;;;;56.92;10.20;;;;;;;;;;4994029;28;20161;-46
2022/03/06 01:36:11;;;;;;;54.45;10.30;;;;;;;;;;4993950;28;20101;-46
2022/03/06 01:38:38;;;;;;;49.50;10.05;;;;;;;;;;4994248;28;20408;-46
2022/03/06 01:41:05;;;;;;;51.90;11.13;;;;;;;;;;4994017;28;20080;-46
2022/03/06 01:43:32;;;;;;;45.45;9.52;;;;;;;;;;4994000;28;20033;-46
2022/03/06 01:45:59;;;;;;;66.75;12.02;;;;;;;;;;4994129;28;20046;-46
2022/03/06 01:48:26;;;;;;;57.83;12.20;;;;;;;;;;4993931;28;20057;-45
2022/03/06 01:50:53;;;;;;;61.88;11.68;;;;;;;;;;4994073;28;20030;-45
2022/03/06 01:53:20;;;;;;;65.22;11.55;;;;;;;;;;4993795;28;20069;-45
2022/03/06 01:55:47;;;;;;;42.22;9.13;;;;;;;;;;5007854;28;20048;-44
2022/03/06 01:58:14;;;;;;;52.17;11.57;;;;;;;;;;4995783;28;20038;-44
2022/03/06 02:00:44;;;;;;;62.70;11.55;;;;;;;;;;5014229;28;20101;-41
2022/03/06 02:03:13;;;;;;;57.20;10.98;;;;;;;;;;5013671;28;20030;-43
2022/03/06 02:05:40;;;;;;;52.78;11.35;;;;;;;;;;5003870;28;20034;-46
2022/03/06 02:08:07;;;;;;;55.78;10.23;;;;;;;;;;4994605;28;20077;-46
2022/03/06 02:10:35;;;;;;;55.65;9.85;;;;;;;;;;4994542;28;20105;-46
2022/03/06 02:13:02;;;;;;;43.58;10.43;;;;;;;;;;4993908;28;20069;-46
2022/03/06 02:15:29;;;;;;;55.72;12.55;;;;;;;;;;4993837;28;20018;-46
2022/03/06 02:17:56;;;;;;;49.50;10.18;;;;;;;;;;4994574;28;20066;-46
2022/03/06 02:20:24;;;;;;;48.97;10.93;;;;;;;;;;4993869;28;20026;-46
2022/03/06 02:22:52;;;;;;;52.20;11.02;;;;;;;;;;4993683;28;20038;-41
2022/03/06 02:25:19;;;;;;;46.13;9.93;;;;;;;;;;4993879;28;20023;-44
2022/03/06 02:27:47;;;;;;;49.45;10.40;;;;;;;;;;4993418;28;20030;-42
2022/03/06 02:30:16;;;;;;;48.47;10.35;;;;;;;;;;4976827;28;20492;-41
2022/03/06 02:32:44;;;;;;;43.60;10.60;;;;;;;;;;4993974;28;20101;-39
2022/03/06 02:35:11;;;;;;;53.45;10.45;;;;;;;;;;4992923;28;20030;-40
2022/03/06 02:37:39;;;;;;;53.55;10.73;;;;;;;;;;4993631;28;20034;-40
2022/03/06 02:40:07;;;;;;;53.67;9.85;;;;;;;;;;4993741;28;20512;-41
2022/03/06 02:42:36;;;;;;;45.45;9.65;;;;;;;;;;4993763;28;20026;-39
2022/03/06 02:45:08;;;;;;;44.08;9.43;;;;;;;;;;4993587;28;20035;-39
2022/03/06 02:47:35;;;;;;;44.60;9.70;;;;;;;;;;4993233;28;20030;-35
2022/03/06 02:50:05;;;;;;;51.05;10.85;;;;;;;;;;4975978;28;20050;-40
2022/03/06 02:52:32;;;;;;;48.20;9.45;;;;;;;;;;4992776;28;20096;-38
2022/03/06 02:54:59;;;;;;;44.35;8.45;;;;;;;;;;4993878;28;20031;-37
2022/03/06 02:57:26;;;;;;;50.70;9.95;;;;;;;;;;4992967;28;20038;-39
2022/03/06 02:59:53;;;;;;;54.15;9.25;;;;;;;;;;4993506;28;20488;-40
2022/03/06 03:02:20;;;;;;;44.30;9.70;;;;;;;;;;4992826;28;20033;-39
2022/03/06 03:04:47;;;;;;;40.13;9.10;;;;;;;;;;4993636;28;20137;-40
2022/03/06 03:07:14;;;;;;;40.15;9.50;;;;;;;;;;4992913;28;20477;-40
2022/03/06 03:09:42;;;;;;;42.08;9.85;;;;;;;;;;4993096;28;20505;-40
2022/03/06 03:12:09;;;;;;;44.20;8.82;;;;;;;;;;4993042;28;20057;-40
2022/03/06 03:14:36;;;;;;;37.15;9.05;;;;;;;;;;4993056;28;20038;-40
2022/03/06 03:17:07;;;;;;;43.30;9.68;;;;;;;;;;4992929;28;20030;-41
2022/03/06 03:19:34;;;;;;;38.70;8.63;;;;;;;;;;4993493;28;20534;-44
2022/03/06 03:22:01;;;;;;;40.55;8.95;;;;;;;;;;4993423;28;20366;-44
2022/03/06 03:24:29;;;;;;;44.80;9.85;;;;;;;;;;4992670;28;20037;-44
2022/03/06 03:26:56;;;;;;;42.40;9.50;;;;;;;;;;4992703;28;20053;-44
2022/03/06 03:29:23;;;;;;;49.92;10.40;;;;;;;;;;4992616;28;20037;-44
2022/03/06 03:31:50;;;;;;;49.20;10.20;;;;;;;;;;4993089;28;20126;-44
2022/03/06 03:34:17;;;;;;;44.78;9.15;;;;;;;;;;4993187;28;20493;-44
2022/03/06 03:36:44;;;;;;;42.33;9.65;;;;;;;;;;4992461;28;20525;-44
2022/03/06 03:39:11;;;;;;;45.30;8.65;;;;;;;;;;4992224;28;20027;-44
2022/03/06 03:41:38;;;;;;;33.45;8.43;;;;;;;;;;4993088;28;20178;-43
2022/03/06 03:44:05;;;;;;;31.02;7.95;;;;;;;;;;4974670;28;20035;-44
2022/03/06 03:46:32;;;;;;;42.47;8.60;;;;;;;;;;4992344;28;20030;-44
2022/03/06 03:48:59;;;;;;;35.63;8.18;;;;;;;;;;4992360;28;20126;-44
2022/03/06 03:51:26;;;;;;;35.17;8.40;;;;;;;;;;4992459;28;20485;-44
2022/03/06 03:53:53;;;;;;;26.83;8.15;;;;;;;;;;4992956;28;20030;-44
2022/03/06 03:56:22;;;;;;;40.33;8.65;;;;;;;;;;4992674;28;20548;-44
2022/03/06 03:58:50;;;;;;;33.83;8.73;;;;;;;;;;4992037;28;20049;-44
2022/03/06 04:01:20;;;;;;;41.20;8.43;;;;;;;;;;4992020;28;20038;-44
2022/03/06 04:03:47;;;;;;;37.65;7.90;;;;;;;;;;4992766;28;20053;-44
2022/03/06 04:06:14;;;;;;;34.63;8.07;;;;;;;;;;4992103;28;20030;-43
2022/03/06 04:08:41;;;;;;;32.60;8.73;;;;;;;;;;4991731;28;20084;-43
2022/03/06 04:11:08;;;;;;;32.65;8.13;;;;;;;;;;4991154;28;20031;-43
2022/03/06 04:13:35;;;;;;;36.15;9.23;;;;;;;;;;4991831;28;20038;-43
2022/03/06 04:16:02;;;;;;;26.58;8.13;;;;;;;;;;4991894;28;20420;-44
2022/03/06 04:18:29;;;;;;;39.95;8.32;;;;;;;;;;4992887;28;20035;-44
2022/03/06 04:20:56;;;;;;;25.55;7.03;;;;;;;;;;4974864;28;20031;-43
2022/03/06 04:23:23;;;;;;;26.55;7.70;;;;;;;;;;4991721;28;20034;-42
2022/03/06 04:25:49;;;;;;;27.77;6.55;;;;;;;;;;4991947;28;20026;-42
2022/03/06 04:28:16;;;;;;;27.05;7.68;;;;;;;;;;4992927;28;20033;-42
2022/03/06 04:30:43;;;;;;;23.23;7.00;;;;;;;;;;4992189;28;20026;-42
2022/03/06 04:33:11;;;;;;;26.98;6.90;;;;;;;;;;4990985;28;20034;-42
2022/03/06 04:35:38;;;;;;;24.75;7.35;;;;;;;;;;4991327;28;20085;-42
2022/03/06 04:38:05;;;;;;;28.73;7.72;;;;;;;;;;4990662;28;20057;-42
2022/03/06 04:40:32;;;;;;;35.15;7.63;;;;;;;;;;4991685;28;20359;-42
2022/03/06 04:42:59;;;;;;;30.38;7.80;;;;;;;;;;4990415;28;20074;-42
2022/03/06 04:45:26;;;;;;;33.30;8.45;;;;;;;;;;4991095;28;20033;-42
2022/03/06 04:47:53;;;;;;;27.17;7.53;;;;;;;;;;4990944;28;20097;-41
2022/03/06 04:50:20;;;;;;;31.30;8.23;;;;;;;;;;4991709;28;20037;-42
2022/03/06 04:52:47;;;;;;;28.75;7.85;;;;;;;;;;4994700;28;20085;-44
2022/03/06 04:55:14;;;;;;;35.35;7.85;;;;;;;;;;4994142;28;20023;-44
2022/03/06 04:57:45;;;;;;;25.20;7.63;;;;;;;;;;4994570;28;20042;-42
2022/03/06 05:00:13;;;;;;;32.67;8.30;;;;;;;;;;4994074;28;20125;-42
2022/03/06 05:02:40;;;;;;;25.83;7.78;;;;;;;;;;4994644;28;20393;-41
2022/03/06 05:05:08;;;;;;;33.88;8.18;;;;;;;;;;4994707;28;20034;-42
2022/03/06 05:07:35;;;;;;;23.33;6.50;;;;;;;;;;4902694;28;2632454;-41
2022/03/06 05:10:02;;;;;;;23.55;7.45;;;;;;;;;;4995745;28;20029;-42
2022/03/06 05:12:29;;;;;;;22.92;7.13;;;;;;;;;;4977504;28;20452;-41
2022/03/06 05:14:56;;;;;;;20.73;6.60;;;;;;;;;;4995511;28;20525;-42
2022/03/06 05:17:23;;;;;;;24.27;7.47;;;;;;;;;;4995757;28;20030;-42
2022/03/06 05:19:50;;;;;;;21.70;6.88;;;;;;;;;;4994542;28;20077;-42
2022/03/06 05:22:17;;;;;;;26.73;7.10;;;;;;;;;;4994768;28;20284;-43
2022/03/06 05:24:44;;;;;;;25.23;7.47;;;;;;;;;;4995365;28;20026;-43
2022/03/06 05:27:11;;;;;;;29.52;7.10;;;;;;;;;;4995454;28;20018;-43
2022/03/06 05:29:38;;;;;;;30.50;7.60;;;;;;;;;;4994713;28;20031;-43
2022/03/06 05:32:05;;;;;;;26.50;6.30;;;;;;;;;;4995130;28;20034;-43
2022/03/06 05:34:32;;;;;;;18.45;6.43;;;;;;;;;;4995017;28;20057;-43
2022/03/06 05:37:00;;;;;;;26.27;7.07;;;;;;;;;;4994722;28;20098;-43
2022/03/06 05:39:27;;;;;;;23.50;6.70;;;;;;;;;;4995185;28;20081;-43
2022/03/06 05:41:54;;;;;;;26.00;6.70;;;;;;;;;;4994867;28;20058;-43
2022/03/06 05:44:21;;;;;;;20.88;6.18;;;;;;;;;;4995084;28;20038;-43
2022/03/06 05:46:48;;;;;;;21.10;6.80;;;;;;;;;;4994539;28;20100;-43
2022/03/06 05:49:15;;;;;;;19.15;5.57;;;;;;;;;;4994730;28;20031;-43
2022/03/06 05:51:44;;;;;;;30.95;6.55;;;;;;;;;;4994301;28;20026;-43
2022/03/06 05:54:11;;;;;;;22.88;6.10;;;;;;;;;;4994914;28;20062;-43
2022/03/06 05:56:42;;;;;;;23.20;6.72;;;;;;;;;;4994408;28;20023;-43
2022/03/06 05:59:09;;;;;;;24.75;6.05;;;;;;;;;;4976884;28;20393;-43
2022/03/06 06:01:36;;;;;;;25.15;6.65;;;;;;;;;;4994536;28;20026;-43
2022/03/06 06:04:03;;;;;;;23.38;5.45;;;;;;;;;;4994404;28;20062;-43
2022/03/06 06:06:30;;;;;;;25.85;6.32;;;;;;;;;;4994355;28;20493;-43
2022/03/06 06:08:57;;;;;;;24.17;6.22;;;;;;;;;;4994711;28;20073;-43
2022/03/06 06:11:25;;;;;;;26.73;6.18;;;;;;;;;;4994246;28;20037;-43
2022/03/06 06:13:52;;;;;;;20.52;6.05;;;;;;;;;;4993923;28;20485;-43
2022/03/06 06:16:19;;;;;;;21.42;5.93;;;;;;;;;;4994564;28;20045;-44
2022/03/06 06:18:46;;;;;;;20.30;6.15;;;;;;;;;;4993552;28;20046;-42
2022/03/06 06:21:13;;;;;;;16.73;5.85;;;;;;;;;;4994563;28;20033;-42
2022/03/06 06:23:40;;;;;;;22.33;6.15;;;;;;;;;;4993656;28;20022;-42
2022/03/06 06:26:08;;;;;;;22.92;5.30;;;;;;;;;;4994070;28;20026;-42
2022/03/06 06:28:35;;;;;;;16.85;5.90;;;;;;;;;;4993509;28;20022;-43
2022/03/06 06:31:02;;;;;;;20.13;5.30;;;;;;;;;;4993413;28;20597;-43
2022/03/06 06:33:29;;;;;;;21.13;5.68;;;;;;;;;;4994273;28;20026;-43
2022/03/06 06:35:56;;;;;;;21.13;5.88;;;;;;;;;;4994117;28;20033;-43
2022/03/06 06:38:24;;;;;;;25.17;5.40;;;;;;;;;;4993392;28;20041;-43
2022/03/06 06:40:52;;;;;;;19.95;5.47;;;;;;;;;;4993261;28;20027;-43
2022/03/06 06:43:19;;;;;;;20.25;5.55;;;;;;;;;;4994344;28;20117;-43
2022/03/06 06:45:46;;;;;;;20.17;5.63;;;;;;;;;;4993654;28;20141;-44
2022/03/06 06:48:13;;;;;;;16.55;4.82;;;;;;;;;;4993178;28;20033;-43
2022/03/06 06:50:41;;;;;;;21.45;5.75;;;;;;;;;;4993578;28;20041;-43
2022/03/06 06:53:08;;;;;;;13.35;4.82;;;;;;;;;;4993890;28;20038;-44
2022/03/06 06:55:38;;;;;;;15.70;5.35;;;;;;;;;;4993053;28;20102;-43
2022/03/06 06:58:05;;;;;;;18.15;4.70;;;;;;;;;;4992952;28;20038;-43
2022/03/06 07:00:32;;;;;;;18.65;5.03;;;;;;;;;;4993880;28;20062;-44
2022/03/06 07:02:59;;;;;;;14.73;5.10;;;;;;;;;;4993723;28;20031;-44
2022/03/06 07:05:26;;;;;;;16.75;5.03;;;;;;;;;;4992865;28;20037;-44
2022/03/06 07:07:53;;;;;;;14.95;4.75;;;;;;;;;;4993422;28;20141;-43
2022/03/06 07:10:21;;;;;;;20.20;4.93;;;;;;;;;;4992800;28;20118;-44
2022/03/06 07:12:51;;;;;;;18.40;5.13;;;;;;;;;;4993229;28;20703;-44
2022/03/06 07:15:18;;;;;;;15.52;4.68;;;;;;;;;;4993123;28;20046;-44
2022/03/06 07:17:45;;;;;;;13.00;4.63;;;;;;;;;;4992476;28;20046;-44
2022/03/06 07:20:12;;;;;;;16.40;4.32;;;;;;;;;;4993034;28;20769;-44
2022/03/06 07:22:39;;;;;;;17.27;5.32;;;;;;;;;;4993110;28;20036;-44
2022/03/06 07:25:06;;;;;;;18.42;5.57;;;;;;;;;;4993358;28;20030;-44
2022/03/06 07:27:33;;;;;;;11.73;4.00;;;;;;;;;;4992237;28;20042;-44
2022/03/06 07:30:00;;;;;;;12.30;4.13;;;;;;;;;;4992753;28;20548;-44
2022/03/06 07:32:27;;;;;;;11.30;4.45;;;;;;;;;;4992651;28;20027;-44
2022/03/06 07:34:54;;;;;;;11.38;4.30;;;;;;;;;;4992496;28;20557;-43
2022/03/06 07:37:21;;;;;;;12.15;4.38;;;;;;;;;;4992544;28;20026;-44
2022/03/06 07:39:49;;;;;;;15.80;4.15;;;;;;;;;;4992907;28;20810;-44
2022/03/06 07:42:16;;;;;;;17.13;4.72;;;;;;;;;;4992611;28;20473;-44
2022/03/06 07:44:43;;;;;;;15.05;4.47;;;;;;;;;;4991999;28;20022;-44
2022/03/06 07:47:10;;;;;;;11.18;3.63;;;;;;;;;;4993177;28;20079;-44
2022/03/06 07:49:37;;;;;;;12.00;4.05;;;;;;;;;;4992622;28;20037;-44
2022/03/06 07:52:04;;;;;;;12.30;4.05;;;;;;;;;;4992522;28;20026;-44
2022/03/06 07:54:31;;;;;;;11.57;4.25;;;;;;;;;;4992955;28;20030;-44
2022/03/06 07:56:58;;;;;;;14.57;4.57;;;;;;;;;;4991657;28;20473;-44
2022/03/06 07:59:25;;;;;;;9.95;3.70;;;;;;;;;;4992554;28;20030;-44
2022/03/06 08:01:53;;;;;;;9.63;3.78;;;;;;;;;;4992311;28;20041;-44
2022/03/06 08:04:20;;;;;;;11.10;3.88;;;;;;;;;;4991997;28;20110;-44
2022/03/06 08:06:50;;;;;;;7.75;3.28;;;;;;;;;;4974713;28;20425;-44
2022/03/06 08:09:17;;;;;;;8.45;3.30;;;;;;;;;;4992514;28;20054;-44
2022/03/06 08:11:44;;;;;;;13.65;3.45;;;;;;;;;;4992093;28;20064;-44
2022/03/06 08:14:11;;;;;;;9.77;3.63;;;;;;;;;;4992821;28;20031;-44
2022/03/06 08:16:39;;;;;;;10.38;3.20;;;;;;;;;;4991670;28;20432;-43
2022/03/06 08:19:06;;;;;;;8.88;3.60;;;;;;;;;;4992600;28;20046;-44
2022/03/06 08:21:33;;;;;;;11.10;3.97;;;;;;;;;;4992674;28;20046;-44
2022/03/06 08:24:00;;;;;;;10.48;3.47;;;;;;;;;;4992377;28;20038;-44
2022/03/06 08:26:27;;;;;;;9.40;3.08;;;;;;;;;;4994315;28;20055;-44
2022/03/06 08:28:54;;;;;;;9.73;3.30;;;;;;;;;;4996226;28;20038;-44
2022/03/06 08:31:21;;;;;;;10.93;3.13;;;;;;;;;;4996329;28;20049;-44
2022/03/06 08:33:48;;;;;;;8.50;3.03;;;;;;;;;;4996596;28;20022;-44
2022/03/06 08:36:16;;;;;;;10.10;2.92;;;;;;;;;;4995413;28;20022;-44
2022/03/06 08:38:43;;;;;;;8.43;2.85;;;;;;;;;;4995788;28;20053;-44
2022/03/06 08:41:10;;;;;;;9.73;2.92;;;;;;;;;;4978652;28;20056;-44
2022/03/06 08:43:37;;;;;;;10.57;3.70;;;;;;;;;;4995488;28;20042;-44
2022/03/06 08:46:04;;;;;;;9.02;2.95;;;;;;;;;;4996306;28;20026;-44
2022/03/06 08:48:31;;;;;;;11.25;3.30;;;;;;;;;;4995565;28;20042;-44
2022/03/06 08:50:59;;;;;;;8.63;3.08;;;;;;;;;;4996109;28;20026;-43
2022/03/06 08:53:26;;;;;;;8.65;3.25;;;;;;;;;;4995072;28;20398;-43
2022/03/06 08:55:53;;;;;;;14.73;3.20;;;;;;;;;;4995579;28;20026;-44
2022/03/06 08:58:20;;;;;;;8.18;2.72;;;;;;;;;;4995814;28;20030;-43
2022/03/06 09:00:47;;;;;;;8.55;2.80;;;;;;;;;;4995192;28;20029;-43
2022/03/06 09:03:14;;;;;;;5.55;2.50;;;;;;;;;;4995907;28;20051;-43
2022/03/06 09:05:41;;;;;;;6.60;2.45;;;;;;;;;;4995447;28;20552;-43
2022/03/06 09:08:11;;;;;;;11.60;2.85;;;;;;;;;;4995503;28;20509;-43
2022/03/06 09:10:39;;;;;;;13.10;3.28;;;;;;;;;;4995592;28;20129;-46
2022/03/06 09:13:07;;;;;;;9.25;2.88;;;;;;;;;;4994881;28;20065;-44
2022/03/06 09:15:35;;;;;;;6.78;2.78;;;;;;;;;;4995487;28;20038;-42
2022/03/06 09:18:02;;;;;;;8.88;2.92;;;;;;;;;;4995215;28;20039;-42
2022/03/06 09:20:29;;;;;;;12.27;3.08;;;;;;;;;;4995041;28;20556;-42
2022/03/06 09:22:56;;;;;;;6.38;2.50;;;;;;;;;;4995087;28;20150;-42
2022/03/06 09:25:23;;;;;;;7.35;2.78;;;;;;;;;;4995466;28;20121;-42
2022/03/06 09:27:50;;;;;;;10.57;3.47;;;;;;;;;;4994772;28;20081;-42
2022/03/06 09:30:17;;;;;;;6.68;2.63;;;;;;;;;;4995692;28;20046;-42
2022/03/06 09:32:44;;;;;;;7.57;1.95;;;;;;;;;;4994537;28;20053;-42
2022/03/06 09:35:11;;;;;;;11.27;2.25;;;;;;;;;;4995223;28;20053;-42
2022/03/06 09:37:38;;;;;;;7.00;2.53;;;;;;;;;;4994791;28;20041;-41
2022/03/06 09:40:06;;;;;;;8.93;2.38;;;;;;;;;;4994657;28;20089;-43
2022/03/06 09:42:33;;;;;;;5.30;2.33;;;;;;;;;;4995406;28;20058;-42
2022/03/06 09:45:03;;;;;;;8.32;2.38;;;;;;;;;;4994287;28;20053;-42
2022/03/06 09:47:30;;;;;;;7.82;2.45;;;;;;;;;;4995149;28;20038;-42
2022/03/06 09:49:57;;;;;;;6.50;2.53;;;;;;;;;;4994658;28;20118;-42
2022/03/06 09:52:23;;;;;;;8.90;2.80;;;;;;;;;;4994700;28;20034;-42
2022/03/06 09:54:50;;;;;;;6.13;2.10;;;;;;;;;;4995118;28;20025;-42
2022/03/06 09:57:21;;;;;;;7.15;2.50;;;;;;;;;;4994296;28;20061;-42
2022/03/06 09:59:48;;;;;;;6.45;2.40;;;;;;;;;;4994797;28;20382;-42
2022/03/06 10:02:16;;;;;;;9.20;2.38;;;;;;;;;;4994118;28;20109;-42
2022/03/06 10:04:43;;;;;;;6.03;2.58;;;;;;;;;;4993978;28;20027;-42
2022/03/06 10:07:13;;;;;;;6.32;2.55;;;;;;;;;;4994552;28;20030;-44
2022/03/06 10:09:44;;;;;;;7.28;2.60;;;;;;;;;;4994259;28;20412;-42
2022/03/06 10:12:19;;;;;;;6.50;2.10;;;;;;;;;;4994026;28;20041;-42
2022/03/06 10:14:47;;;;;;;9.25;2.50;;;;;;;;;;4994432;28;20030;-42
2022/03/06 10:17:14;;;;;;;6.93;2.30;;;;;;;;;;4994194;28;20038;-42
2022/03/06 10:19:52;;;;;;;5.82;2.10;;;;;;;;;;4994657;28;20389;-42
2022/03/06 10:22:20;;;;;;;9.65;2.80;;;;;;;;;;4994345;28;20049;-42
2022/03/06 10:24:48;;;;;;;7.00;2.20;;;;;;;;;;4993537;28;20026;-42
2022/03/06 10:27:15;;;;;;;7.38;2.53;;;;;;;;;;4994518;28;20031;-43
2022/03/06 10:29:42;;;;;;;4.28;1.90;;;;;;;;;;4994025;28;20022;-43
2022/03/06 10:32:09;;;;;;;6.10;2.10;;;;;;;;;;4994235;28;20022;-42
2022/03/06 10:34:40;;;;;;;7.63;2.05;;;;;;;;;;4994395;28;20914;-42
2022/03/06 10:37:07;;;;;;;7.13;2.08;;;;;;;;;;4993036;28;20084;-42
2022/03/06 10:39:45;;;;;;;4.93;2.10;;;;;;;;;;4994253;28;20030;-42
2022/03/06 10:42:12;;;;;;;5.00;2.05;;;;;;;;;;4993824;28;20388;-42
2022/03/06 10:44:43;;;;;;;5.95;2.20;;;;;;;;;;4994391;28;20066;-42
2022/03/06 10:47:10;;;;;;;4.90;2.05;;;;;;;;;;4993729;28;20482;-43
2022/03/06 10:52:54;;;;;;;8.10;2.10;;;;;;;;;;4995357;28;20069;-44
2022/03/06 10:58:39;;;;;;;5.68;2.25;;;;;;;;;;4994766;28;20045;-42
2022/03/06 11:04:22;;;;;;;7.13;2.30;;;;;;;;;;4994876;28;20421;-42
2022/03/06 11:10:05;;;;;;;5.97;2.15;;;;;;;;;;4983515;28;20193;-42
2022/03/06 11:12:32;;;;;;;6.13;2.30;;;;;;;;;;4994597;28;20554;-42
2022/03/06 11:15:00;;;;;;;4.47;1.95;;;;;;;;;;4993126;28;20045;-44
2022/03/06 11:17:27;;;;;;;4.85;1.80;;;;;;;;;;4992853;28;20038;-44
2022/03/06 11:19:54;;;;;;;7.60;2.08;;;;;;;;;;4993551;28;20033;-44
2022/03/06 11:22:25;;;;;;;6.05;2.22;;;;;;;;;;4992676;28;20026;-44
2022/03/06 11:24:53;;;;;;;5.07;1.92;;;;;;;;;;4993426;28;20041;-44
2022/03/06 11:27:39;;;;;;;4.18;2.00;;;;;;;;;;4993365;28;20033;-44
2022/03/06 11:30:15;;;;;;;6.25;2.22;;;;;;;;;;4992757;28;20396;-45
2022/03/06 11:32:42;;;;;;;4.20;1.85;;;;;;;;;;4992252;28;20051;-44
2022/03/06 11:35:18;;;;;;;5.55;1.85;;;;;;;;;;4992764;28;20034;-44
2022/03/06 11:37:55;;;;;;;4.78;1.75;;;;;;;;;;4992556;28;20121;-45
2022/03/06 11:40:37;;;;;;;8.50;1.83;;;;;;;;;;4993235;28;20054;-46
2022/03/06 11:43:05;;;;;;;4.25;1.70;;;;;;;;;;4992140;28;20658;-46
2022/03/06 11:45:50;;;;;;;6.70;2.08;;;;;;;;;;4993032;28;20033;-42
2022/03/06 11:48:24;;;;;;;4.22;1.90;;;;;;;;;;4992157;28;20049;-42
2022/03/06 11:51:09;;;;;;;4.07;1.80;;;;;;;;;;4993005;28;20026;-42
2022/03/06 11:53:47;;;;;;;3.92;1.88;;;;;;;;;;4992906;28;20117;-42
2022/03/06 11:56:50;;;;;;;3.85;1.77;;;;;;;;;;4992446;28;20018;-42
2022/03/06 11:59:33;;;;;;;4.75;2.00;;;;;;;;;;4931951;29;20067;-42
2022/03/06 12:02:05;;;;;;;4.78;1.90;;;;;;;;;;4987658;28;20039;-42
2022/03/06 12:04:33;;;;;;;4.63;1.90;;;;;;;;;;4992451;28;20031;-44
2022/03/06 12:07:05;;;;;;;5.53;1.85;;;;;;;;;;4992098;28;20025;-41
2022/03/06 12:09:40;;;;;;;4.43;1.70;;;;;;;;;;4992681;28;20043;-42
2022/03/06 12:12:08;;;;;;;6.28;1.98;;;;;;;;;;4992330;28;20038;-42
2022/03/06 12:14:38;;;;;;;3.83;1.52;;;;;;;;;;4992275;28;20085;-42
2022/03/06 12:17:10;;;;;;;4.75;1.67;;;;;;;;;;4992440;28;20026;-44
2022/03/06 12:19:43;;;;;;;4.13;1.83;;;;;;;;;;4992514;28;20100;-44
2022/03/06 12:22:14;;;;;;;5.70;1.67;;;;;;;;;;4992306;28;20126;-45
2022/03/06 12:24:42;;;;;;;5.45;1.90;;;;;;;;;;4974511;28;20034;-44
2022/03/06 12:27:17;;;;;;;5.28;1.67;;;;;;;;;;4992689;28;20027;-44
2022/03/06 12:29:53;;;;;;;6.75;1.70;;;;;;;;;;4992180;28;20381;-44
2022/03/06 12:32:29;;;;;;;5.32;1.77;;;;;;;;;;4992246;28;20061;-44
2022/03/06 12:34:57;;;;;;;5.53;1.60;;;;;;;;;;4992297;28;20027;-44
2022/03/06 12:37:24;;;;;;;3.53;1.60;;;;;;;;;;4991838;28;20057;-45
2022/03/06 12:39:51;;;;;;;3.50;1.73;;;;;;;;;;4992634;28;20030;-44
2022/03/06 12:42:25;;;;;;;4.43;1.95;;;;;;;;;;4991968;28;20060;-44
2022/03/06 12:45:11;;;;;;;3.53;1.50;;;;;;;;;;4991735;28;20035;-45
2022/03/06 12:47:38;;;;;;;5.18;1.65;;;;;;;;;;4991799;28;20073;-46
2022/03/06 12:50:07;;;;;;;7.00;2.00;;;;;;;;;;4992260;28;20022;-45
2022/03/06 12:52:35;;;;;;;4.63;1.38;;;;;;;;;;4991868;28;20030;-45
2022/03/06 12:55:07;;;;;;;4.55;1.50;;;;;;;;;;4990439;28;20451;-44
2022/03/06 12:57:38;;;;;;;7.22;1.85;;;;;;;;;;4991241;28;20093;-43
2022/03/06 13:00:10;;;;;;;5.53;1.60;;;;;;;;;;4992161;28;20034;-44
2022/03/06 13:02:37;;;;;;;3.88;1.50;;;;;;;;;;4991517;28;20026;-44
2022/03/06 13:05:07;;;;;;;5.93;1.77;;;;;;;;;;4991807;28;20081;-44
2022/03/06 13:07:34;;;;;;;5.38;1.85;;;;;;;;;;4991594;28;20038;-44
2022/03/06 13:10:14;;;;;;;7.10;1.92;;;;;;;;;;4991015;28;20050;-44
2022/03/06 13:12:42;;;;;;;4.18;1.50;;;;;;;;;;4976268;28;20062;-43
2022/03/06 13:15:15;;;;;;;7.90;1.58;;;;;;;;;;4994497;28;20026;-46
2022/03/06 13:17:43;;;;;;;5.30;1.63;;;;;;;;;;4977628;28;20040;-43
2022/03/06 13:20:10;;;;;;;6.85;1.85;;;;;;;;;;4992845;28;20039;-45
2022/03/06 13:22:38;;;;;;;7.07;1.63;;;;;;;;;;4994354;28;20058;-45
2022/03/06 13:25:07;;;;;;;7.05;1.77;;;;;;;;;;4991600;28;20493;-44
2022/03/06 13:27:35;;;;;;;5.40;1.63;;;;;;;;;;4994793;28;20488;-44
2022/03/06 13:30:02;;;;;;;7.10;1.85;;;;;;;;;;4994207;28;20089;-44
2022/03/06 13:32:30;;;;;;;6.28;1.60;;;;;;;;;;4995110;28;20145;-44
2022/03/06 13:34:57;;;;;;;9.55;1.92;;;;;;;;;;4994454;28;20030;-44
2022/03/06 13:37:33;;;;;;;7.43;1.98;;;;;;;;;;4994207;28;20034;-45
2022/03/06 13:40:00;;;;;;;6.45;1.85;;;;;;;;;;4991614;28;20101;-44
2022/03/06 13:42:31;;;;;;;13.15;2.40;;;;;;;;;;4994184;28;20046;-43
2022/03/06 13:44:59;;;;;;;7.45;1.80;;;;;;;;;;4976214;28;20049;-44
2022/03/06 13:47:26;;;;;;;9.45;1.90;;;;;;;;;;4993965;28;20062;-44
2022/03/06 13:50:10;;;;;;;8.30;2.10;;;;;;;;;;4994461;28;20030;-44
2022/03/06 13:52:38;;;;;;;9.27;2.42;;;;;;;;;;4994793;28;20162;-43
2022/03/06 13:55:06;;;;;;;12.13;2.22;;;;;;;;;;4993905;28;20050;-42
2022/03/06 13:57:33;;;;;;;10.50;2.13;;;;;;;;;;4975892;28;20481;-43
2022/03/06 14:00:20;;;;;;;7.72;1.88;;;;;;;;;;4994465;28;20026;-42
2022/03/06 14:02:48;;;;;;;14.73;3.13;;;;;;;;;;4992803;28;20793;-42
2022/03/06 14:05:15;;;;;;;14.00;2.75;;;;;;;;;;4993727;28;20038;-44
2022/03/06 14:07:42;;;;;;;14.35;2.60;;;;;;;;;;4994162;28;20030;-44
2022/03/06 14:10:09;;;;;;;11.32;2.00;;;;;;;;;;4993892;28;20066;-44
2022/03/06 14:12:36;;;;;;;10.02;2.40;;;;;;;;;;4994507;28;20054;-44
2022/03/06 14:15:03;;;;;;;12.75;2.38;;;;;;;;;;4993609;28;20088;-44
2022/03/06 14:17:30;;;;;;;7.90;2.22;;;;;;;;;;4994165;28;20026;-43
2022/03/06 14:20:08;;;;;;;13.52;2.25;;;;;;;;;;4994331;28;20022;-43
2022/03/06 14:22:35;;;;;;;35.00;2.67;;;;;;;;;;4992543;28;20034;-44
2022/03/06 14:25:02;;;;;;;12.82;2.47;;;;;;;;;;4993627;28;20026;-44
2022/03/06 14:27:29;;;;;;;17.20;2.92;;;;;;;;;;4993577;28;20058;-44
2022/03/06 14:29:56;;;;;;;9.27;2.22;;;;;;;;;;4993594;28;20067;-44
2022/03/06 14:32:23;;;;;;;14.55;2.38;;;;;;;;;;4993710;28;20113;-44
2022/03/06 14:34:50;;;;;;;9.57;1.80;;;;;;;;;;4993152;28;20033;-44
2022/03/06 14:37:16;;;;;;;11.50;2.53;;;;;;;;;;4993714;28;20392;-44
2022/03/06 14:39:43;;;;;;;13.15;2.55;;;;;;;;;;4992971;28;20062;-44
2022/03/06 14:42:10;;;;;;;11.35;2.25;;;;;;;;;;4993545;28;20030;-44
2022/03/06 14:44:37;;;;;;;10.77;2.55;;;;;;;;;;4993465;28;20110;-44
2022/03/06 14:47:04;;;;;;;11.25;2.17;;;;;;;;;;4971104;28;20037;-41
2022/03/06 14:49:31;;;;;;;21.85;3.17;;;;;;;;;;4989577;28;20370;-43
2022/03/06 14:51:59;;;;;;;20.42;3.20;;;;;;;;;;4993074;28;20456;-45